Airport ICAO


10:10 UTC

1°C

Clear skies


An affordable passengers' Moving Map for your aircraft. Made for the iPad and the iPhone
More information here

LFLN


Saint Yan FRANCE   VFR CAVOK


METAR LFLN 181000Z AUTO 05003KT CAVOK 01/M01 Q1019 NOSIG 0h10min

TAF AMD LFLN 180835Z 1809/1818 VRB03KT 9999 BKN020 BECMG 1809/1812 CAVOK 1h35min





NOTAMS

OPEN